Terminal Aerodrome Forecast
Issued by NWS

Home | Current Version | Previous Version | Text Only | Print | Product List | Glossary Off
Versions: 1 2 3 4 5 6 7 8 9 10 11 12 13 14 15 16 17 18 19

000
FTUS44 KLZK 270700 AAA
TAFLIT
TAF AMD
KLIT 270751Z 2708/2806 14008KT 1SM -RA BKN006 OVC008 WS020/19045KT
      TEMPO 2708/2712 1/2SM +RA FG OVC003
     FM271200 14005KT 5SM -RADZ SCT005 OVC008 WS020/19045KT
      TEMPO 2712/2716 2SM RA BR OVC005
     FM271600 36006KT 4SM -DZ BR VCSH BKN008 OVC020
     FM280000 35011KT 4SM -DZ BR OVC015 PROB30 2800/2806 -RA OVC007=

USA.gov is the U.S. government's official web portal to all federal, state and local government web resources and services.